Time;durP1;ratioP1;P1;durP2;ratioP2;P2;SDS_P1;SDS_P2;PMS_P1;PMS_P2;Temp;Humidity;BMP_temperature;BMP_pressure;BME280_temperature;BME280_humidity;BME280_pressure;Samples;Min_cycle;Max_cycle;Signal;HPM_P1;HPM_P2
2021/04/25 00:02:31;;;;;;;7.53;4.60;;;6.80;63.40;;;;;;5202324;28;20064;-67
2021/04/25 00:05:05;;;;;;;10.18;4.95;;;6.90;63.30;;;;;;5202890;28;20033;-68
2021/04/25 00:07:36;;;;;;;9.88;5.45;;;6.90;63.40;;;;;;5233841;28;20049;-68
2021/04/25 00:10:10;;;;;;;6.95;4.47;;;6.80;63.50;;;;;;5198956;28;20071;-68
2021/04/25 00:12:43;;;;;;;10.02;5.40;;;6.80;63.20;;;;;;5218115;28;20044;-70
2021/04/25 00:15:19;;;;;;;9.15;4.68;;;6.80;63.30;;;;;;5199441;28;20038;-69
2021/04/25 00:17:51;;;;;;;9.20;5.00;;;6.70;64.00;;;;;;5231818;28;20091;-69
2021/04/25 00:20:24;;;;;;;9.73;4.88;;;6.60;64.40;;;;;;5199475;28;20049;-69
2021/04/25 00:22:56;;;;;;;10.27;5.20;;;6.50;64.70;;;;;;5199622;28;20485;-69
2021/04/25 00:25:28;;;;;;;8.02;4.28;;;6.60;64.50;;;;;;5199581;28;20057;-69
2021/04/25 00:27:59;;;;;;;7.50;5.00;;;6.70;64.40;;;;;;5198290;28;20045;-69
2021/04/25 00:30:31;;;;;;;8.32;5.10;;;6.70;64.70;;;;;;5198765;28;20045;-68
2021/04/25 00:33:02;;;;;;;8.30;4.95;;;6.80;64.70;;;;;;5200081;28;20749;-70
2021/04/25 00:35:35;;;;;;;6.72;4.18;;;6.80;64.30;;;;;;5204396;28;20053;-68
2021/04/25 00:38:07;;;;;;;8.88;4.45;;;6.80;64.70;;;;;;5200522;28;20036;-69
2021/04/25 00:40:38;;;;;;;6.32;4.28;;;6.80;65.30;;;;;;5201761;28;20069;-69
2021/04/25 00:43:10;;;;;;;6.40;4.13;;;6.70;64.70;;;;;;5203653;28;20049;-69
2021/04/25 00:45:41;;;;;;;6.90;4.47;;;6.70;64.70;;;;;;5202184;28;20053;-68
2021/04/25 00:48:13;;;;;;;7.07;4.70;;;6.70;64.90;;;;;;5197922;28;20446;-70
2021/04/25 00:50:44;;;;;;;7.63;4.65;;;6.60;64.40;;;;;;5202222;28;20208;-68
2021/04/25 00:53:16;;;;;;;7.35;4.85;;;6.60;65.80;;;;;;5201666;28;20129;-68
2021/04/25 00:55:49;;;;;;;8.40;4.90;;;6.50;65.20;;;;;;5202345;28;20049;-68
2021/04/25 00:58:21;;;;;;;8.23;4.78;;;6.40;64.90;;;;;;5204275;28;20057;-68
2021/04/25 01:00:53;;;;;;;10.05;5.60;;;6.30;65.50;;;;;;5199630;28;20095;-69
2021/04/25 01:03:24;;;;;;;7.82;4.75;;;6.20;66.20;;;;;;5199529;28;20565;-68
2021/04/25 01:05:56;;;;;;;8.98;4.60;;;6.10;66.30;;;;;;5198537;28;20045;-68
2021/04/25 01:08:27;;;;;;;7.78;5.07;;;6.10;66.40;;;;;;5200060;28;20171;-68
2021/04/25 01:10:59;;;;;;;9.82;5.40;;;6.20;66.40;;;;;;5231926;28;20049;-69
2021/04/25 01:13:30;;;;;;;8.77;5.38;;;6.20;65.80;;;;;;5199706;28;20049;-68
2021/04/25 01:16:02;;;;;;;7.75;5.15;;;6.30;67.70;;;;;;5231167;28;20107;-70
2021/04/25 01:18:33;;;;;;;9.68;4.70;;;6.30;66.60;;;;;;5200650;28;20148;-71
2021/04/25 01:21:05;;;;;;;7.82;4.75;;;6.30;66.30;;;;;;5200528;28;20099;-69
2021/04/25 01:23:37;;;;;;;7.75;4.40;;;6.30;66.70;;;;;;5200038;28;20045;-69
2021/04/25 01:26:08;;;;;;;8.23;4.75;;;6.40;66.60;;;;;;5197684;28;20042;-69
2021/04/25 01:28:40;;;;;;;6.30;4.05;;;6.30;67.10;;;;;;5203868;28;20048;-68
2021/04/25 01:31:11;;;;;;;7.00;4.15;;;6.30;66.60;;;;;;5201424;28;20602;-71
2021/04/25 01:33:43;;;;;;;6.60;4.32;;;6.20;66.00;;;;;;5204996;28;20045;-68
2021/04/25 01:36:15;;;;;;;6.78;4.70;;;6.30;65.50;;;;;;5202437;28;20402;-68
2021/04/25 01:38:46;;;;;;;8.05;4.65;;;6.30;65.50;;;;;;5204741;28;20045;-67
2021/04/25 01:41:18;;;;;;;7.40;4.55;;;6.30;66.80;;;;;;5202784;28;20042;-68
2021/04/25 01:43:50;;;;;;;7.65;4.18;;;6.30;66.00;;;;;;5204134;28;20506;-68
2021/04/25 01:46:22;;;;;;;7.63;4.25;;;6.30;66.30;;;;;;5233231;28;20594;-68
2021/04/25 01:48:54;;;;;;;10.80;4.82;;;6.30;65.90;;;;;;5217659;28;20053;-70
2021/04/25 01:51:25;;;;;;;7.80;4.53;;;6.30;67.10;;;;;;5186943;28;20119;-68
2021/04/25 01:53:57;;;;;;;7.85;4.75;;;6.40;66.70;;;;;;5204489;28;20053;-70
2021/04/25 01:56:28;;;;;;;7.07;4.88;;;6.40;65.80;;;;;;5202383;28;20094;-69
2021/04/25 01:59:01;;;;;;;7.30;4.93;;;6.50;65.50;;;;;;5205296;28;20049;-68
2021/04/25 02:01:33;;;;;;;9.68;4.95;;;6.50;65.40;;;;;;5202929;28;20050;-69
2021/04/25 02:04:04;;;;;;;8.75;5.50;;;6.50;64.80;;;;;;5206663;28;20061;-69
2021/04/25 02:06:38;;;;;;;7.22;4.47;;;6.60;65.10;;;;;;5203655;28;20469;-68
2021/04/25 02:09:11;;;;;;;6.20;4.40;;;6.50;64.90;;;;;;5205305;28;20198;-69
2021/04/25 02:11:42;;;;;;;8.75;4.70;;;6.40;65.10;;;;;;5205123;28;20107;-68
2021/04/25 02:14:14;;;;;;;8.52;4.40;;;6.40;64.80;;;;;;5205351;28;20055;-68
2021/04/25 02:16:45;;;;;;;7.85;4.30;;;6.40;65.30;;;;;;5203911;28;20486;-68
2021/04/25 02:19:17;;;;;;;9.95;4.10;;;6.50;65.50;;;;;;5203204;28;20061;-68
2021/04/25 02:21:48;;;;;;;7.25;4.63;;;6.40;65.70;;;;;;5203245;28;20046;-68
2021/04/25 02:24:19;;;;;;;7.45;5.10;;;6.40;65.20;;;;;;5204345;28;20130;-68
2021/04/25 02:26:51;;;;;;;8.55;5.70;;;6.50;64.60;;;;;;5201632;28;20045;-68
2021/04/25 02:29:22;;;;;;;8.23;5.20;;;6.50;65.40;;;;;;5218335;28;20120;-68
2021/04/25 02:31:54;;;;;;;8.15;5.07;;;6.50;65.60;;;;;;5202750;28;20057;-67
2021/04/25 02:34:25;;;;;;;7.80;4.97;;;6.50;65.50;;;;;;5204379;28;20053;-68
2021/04/25 02:36:57;;;;;;;6.93;5.03;;;6.60;65.30;;;;;;5202602;28;20073;-68
2021/04/25 02:39:28;;;;;;;9.30;5.10;;;6.60;65.50;;;;;;5201679;28;20114;-68
2021/04/25 02:41:59;;;;;;;8.73;5.72;;;6.60;65.50;;;;;;5199673;28;20052;-71
2021/04/25 02:44:31;;;;;;;8.32;5.20;;;6.60;66.20;;;;;;5220288;28;20057;-70
2021/04/25 02:47:04;;;;;;;8.13;4.30;;;6.50;66.20;;;;;;5201704;28;20041;-68
2021/04/25 02:49:35;;;;;;;8.38;5.40;;;6.50;67.60;;;;;;5204335;28;20046;-69
2021/04/25 02:52:07;;;;;;;7.88;4.85;;;6.50;66.50;;;;;;5202946;28;20049;-69
2021/04/25 02:54:38;;;;;;;10.60;5.45;;;6.50;66.70;;;;;;5201297;28;20202;-69
2021/04/25 02:57:10;;;;;;;8.20;5.35;;;6.50;66.90;;;;;;5201839;28;20594;-69
2021/04/25 02:59:41;;;;;;;11.63;5.40;;;6.40;67.50;;;;;;5203342;28;20573;-69
2021/04/25 03:02:12;;;;;;;10.15;4.80;;;6.30;67.20;;;;;;5234836;28;20041;-69
2021/04/25 03:04:44;;;;;;;8.70;5.07;;;6.40;66.70;;;;;;5201733;28;20038;-68
2021/04/25 03:07:17;;;;;;;9.30;5.10;;;6.50;66.20;;;;;;5201879;28;20402;-68
2021/04/25 03:09:48;;;;;;;7.20;4.47;;;6.60;65.60;;;;;;5201259;28;20595;-70
2021/04/25 03:12:20;;;;;;;8.15;5.00;;;6.70;66.10;;;;;;5217145;28;20034;-70
2021/04/25 03:14:51;;;;;;;9.10;5.03;;;6.60;65.90;;;;;;5202521;28;20057;-68
2021/04/25 03:17:23;;;;;;;8.50;5.22;;;6.70;65.50;;;;;;5234166;28;20125;-69
2021/04/25 03:19:54;;;;;;;9.07;4.80;;;6.80;64.70;;;;;;5200563;28;20119;-68
2021/04/25 03:22:26;;;;;;;7.43;4.82;;;6.80;65.60;;;;;;5204857;28;20618;-69
2021/04/25 03:24:57;;;;;;;8.65;5.07;;;6.70;65.50;;;;;;5202098;28;20124;-69
2021/04/25 03:27:29;;;;;;;8.50;4.97;;;6.70;66.60;;;;;;5233133;28;20178;-68
2021/04/25 03:30:01;;;;;;;8.10;4.88;;;6.70;66.60;;;;;;5237596;28;20487;-68
2021/04/25 03:32:32;;;;;;;8.30;5.43;;;6.70;66.20;;;;;;5201151;28;20049;-68
2021/04/25 03:35:06;;;;;;;8.25;5.40;;;6.60;67.70;;;;;;5202030;28;20045;-68
2021/04/25 03:37:38;;;;;;;10.90;5.57;;;6.60;67.60;;;;;;5218234;28;20554;-68
2021/04/25 03:40:13;;;;;;;7.88;5.53;;;6.50;67.30;;;;;;5199182;28;20041;-68
2021/04/25 03:42:44;;;;;;;9.70;4.75;;;6.60;67.00;;;;;;5202430;28;20037;-68
2021/04/25 03:45:17;;;;;;;9.52;5.90;;;6.60;67.10;;;;;;5205035;28;20053;-68
2021/04/25 03:47:52;;;;;;;8.25;5.00;;;6.60;67.20;;;;;;5204310;28;20064;-69
2021/04/25 03:50:28;;;;;;;8.15;5.35;;;6.60;66.70;;;;;;5201932;28;20056;-70
2021/04/25 03:52:59;;;;;;;9.15;5.65;;;6.60;66.90;;;;;;5200879;28;20111;-68
2021/04/25 03:55:31;;;;;;;10.25;5.82;;;6.60;67.20;;;;;;5200736;28;20049;-68
2021/04/25 03:58:03;;;;;;;8.75;6.03;;;6.50;67.70;;;;;;5201674;28;20096;-68
2021/04/25 04:00:34;;;;;;;8.75;5.78;;;6.20;68.80;;;;;;5200274;28;20052;-68
2021/04/25 04:03:06;;;;;;;9.98;5.88;;;6.20;68.00;;;;;;5199451;28;20104;-69
2021/04/25 04:05:37;;;;;;;8.15;5.57;;;6.20;67.90;;;;;;5200851;28;20069;-68
2021/04/25 04:08:09;;;;;;;9.15;5.40;;;6.20;68.70;;;;;;5200793;28;20124;-68
2021/04/25 04:10:40;;;;;;;8.93;5.72;;;6.10;68.40;;;;;;5198861;28;20053;-69
2021/04/25 04:13:11;;;;;;;10.20;6.28;;;6.20;67.90;;;;;;5184898;28;20151;-68
2021/04/25 04:15:43;;;;;;;9.70;5.70;;;6.30;66.90;;;;;;5204052;28;20056;-68
2021/04/25 04:18:14;;;;;;;9.13;5.93;;;6.30;67.70;;;;;;5200834;28;20048;-68
2021/04/25 04:20:46;;;;;;;9.20;6.10;;;6.30;67.50;;;;;;5199187;28;20457;-68
2021/04/25 04:23:17;;;;;;;9.05;5.82;;;6.20;67.90;;;;;;5217713;28;20091;-68
2021/04/25 04:25:49;;;;;;;8.00;5.50;;;6.20;68.30;;;;;;5200526;28;20103;-68
2021/04/25 04:28:21;;;;;;;10.25;5.53;;;6.10;68.70;;;;;;5233131;28;20107;-68
2021/04/25 04:30:52;;;;;;;8.88;5.60;;;6.20;68.50;;;;;;5200935;28;20064;-68
2021/04/25 04:33:24;;;;;;;10.63;5.32;;;6.20;68.90;;;;;;5200549;28;20148;-68
2021/04/25 04:35:55;;;;;;;9.48;4.95;;;6.20;69.10;;;;;;5199637;28;20420;-69
2021/04/25 04:38:27;;;;;;;9.70;5.50;;;6.20;68.70;;;;;;5202715;28;20119;-69
2021/04/25 04:40:58;;;;;;;8.75;5.75;;;6.30;68.60;;;;;;5202142;28;20069;-68
2021/04/25 04:43:30;;;;;;;9.23;5.93;;;6.40;68.20;;;;;;5201513;28;20125;-68
2021/04/25 04:46:02;;;;;;;9.32;5.93;;;6.40;68.10;;;;;;5205104;28;20052;-68
2021/04/25 04:48:33;;;;;;;8.82;5.55;;;6.40;68.00;;;;;;5202574;28;20533;-68
2021/04/25 04:51:05;;;;;;;8.23;5.38;;;6.50;68.00;;;;;;5232110;28;20045;-68
2021/04/25 04:53:39;;;;;;;8.35;5.60;;;6.50;68.80;;;;;;5200021;28;20100;-69
2021/04/25 04:56:11;;;;;;;8.10;5.10;;;6.50;69.10;;;;;;5205393;28;20598;-68
2021/04/25 04:58:42;;;;;;;8.55;4.90;;;6.50;68.50;;;;;;5203255;28;20131;-68
2021/04/25 05:01:14;;;;;;;10.15;5.63;;;6.60;67.90;;;;;;5232277;28;20129;-68
2021/04/25 05:03:45;;;;;;;7.80;5.63;;;6.60;67.80;;;;;;5219779;28;20065;-69
2021/04/25 05:06:17;;;;;;;8.27;5.10;;;6.70;68.20;;;;;;5238287;28;20442;-69
2021/04/25 05:08:49;;;;;;;9.48;5.03;;;6.70;68.10;;;;;;5204198;28;20092;-70
2021/04/25 05:11:20;;;;;;;6.95;4.85;;;6.70;69.30;;;;;;5236209;28;20065;-69
2021/04/25 05:13:52;;;;;;;9.07;6.18;;;6.70;68.80;;;;;;5221755;28;20037;-68
2021/04/25 05:16:24;;;;;;;9.68;5.72;;;6.70;68.00;;;;;;5235640;28;20128;-71
2021/04/25 05:18:55;;;;;;;8.43;5.45;;;6.80;67.90;;;;;;5203648;28;20049;-69
2021/04/25 05:21:27;;;;;;;8.75;5.30;;;6.80;68.30;;;;;;5202197;28;20045;-69
2021/04/25 05:23:58;;;;;;;9.82;5.72;;;6.80;67.80;;;;;;5236750;28;20133;-69
2021/04/25 05:26:29;;;;;;;10.38;6.05;;;7.00;68.10;;;;;;5216370;28;20519;-68
2021/04/25 05:29:01;;;;;;;7.75;4.95;;;7.10;67.20;;;;;;5202300;28;20053;-68
2021/04/25 05:31:32;;;;;;;8.52;5.78;;;7.30;66.60;;;;;;5205369;28;20104;-68
2021/04/25 05:34:04;;;;;;;8.88;5.90;;;7.40;65.90;;;;;;5203098;28;20519;-69
2021/04/25 05:36:35;;;;;;;7.50;5.32;;;7.60;65.50;;;;;;5204862;28;20115;-71
2021/04/25 05:39:07;;;;;;;9.50;5.63;;;7.70;65.00;;;;;;5205724;28;20103;-69
2021/04/25 05:41:38;;;;;;;14.20;7.00;;;7.80;64.90;;;;;;5201949;28;20045;-68
2021/04/25 05:44:10;;;;;;;9.00;6.40;;;7.90;64.40;;;;;;5201911;28;20094;-68
2021/04/25 05:46:41;;;;;;;8.88;5.80;;;8.00;63.70;;;;;;5200460;28;20147;-68
2021/04/25 05:49:13;;;;;;;9.43;5.82;;;8.10;63.40;;;;;;5204189;28;20046;-68
2021/04/25 05:51:45;;;;;;;8.98;5.78;;;8.20;63.70;;;;;;5201311;28;20041;-69
2021/04/25 05:54:16;;;;;;;9.88;7.13;;;8.30;63.60;;;;;;5202273;28;20049;-68
2021/04/25 05:56:48;;;;;;;10.75;7.07;;;8.40;63.50;;;;;;5197895;28;20041;-68
2021/04/25 05:59:19;;;;;;;11.25;6.15;;;8.50;63.00;;;;;;5184222;28;20041;-69
2021/04/25 06:01:51;;;;;;;10.50;7.53;;;8.60;62.10;;;;;;5201906;28;20406;-68
2021/04/25 06:04:22;;;;;;;11.35;7.60;;;8.70;62.20;;;;;;5201736;28;20517;-68
2021/04/25 06:06:53;;;;;;;12.60;7.53;;;8.70;63.00;;;;;;5201235;28;20068;-68
2021/04/25 06:09:25;;;;;;;10.65;7.13;;;8.80;62.90;;;;;;5201630;28;20993;-68
2021/04/25 06:11:56;;;;;;;12.77;6.97;;;9.00;62.50;;;;;;5233762;28;20060;-69
2021/04/25 06:14:28;;;;;;;11.20;6.60;;;9.00;62.00;;;;;;5199752;28;20068;-68
2021/04/25 06:16:59;;;;;;;12.13;7.35;;;9.10;61.80;;;;;;5197667;28;20103;-70
2021/04/25 06:19:31;;;;;;;13.05;8.07;;;9.20;61.50;;;;;;5201927;28;20056;-69
2021/04/25 06:22:06;;;;;;;11.40;8.00;;;9.40;61.00;;;;;;5200170;28;20045;-68
2021/04/25 06:24:37;;;;;;;10.10;7.00;;;9.40;60.40;;;;;;5201650;28;20126;-69
2021/04/25 06:27:09;;;;;;;12.90;7.10;;;9.50;60.20;;;;;;5200694;28;20037;-68
2021/04/25 06:29:41;;;;;;;9.65;7.05;;;9.60;59.30;;;;;;5197541;28;20135;-68
2021/04/25 06:32:12;;;;;;;10.80;7.30;;;9.60;58.70;;;;;;5218190;28;20037;-68
2021/04/25 06:34:44;;;;;;;11.52;7.50;;;9.80;58.80;;;;;;5200267;28;20406;-68
2021/04/25 06:37:16;;;;;;;11.43;8.13;;;9.90;58.90;;;;;;5202700;28;20541;-68
2021/04/25 06:39:47;;;;;;;10.32;6.78;;;10.00;58.00;;;;;;5202059;28;20118;-67
2021/04/25 06:42:19;;;;;;;13.90;7.30;;;10.10;57.20;;;;;;5204064;28;20045;-67
2021/04/25 06:44:51;;;;;;;11.15;7.30;;;10.20;57.60;;;;;;5202006;28;20143;-70
2021/04/25 06:47:22;;;;;;;10.38;7.18;;;10.50;57.50;;;;;;5200035;28;20049;-68
2021/04/25 06:49:54;;;;;;;10.85;7.75;;;10.70;56.30;;;;;;5200527;28;20523;-69
2021/04/25 06:52:25;;;;;;;12.48;7.90;;;10.80;56.40;;;;;;5198432;28;20041;-67
2021/04/25 06:54:56;;;;;;;10.35;7.47;;;10.80;56.00;;;;;;5200429;28;20450;-68
2021/04/25 06:57:29;;;;;;;10.75;8.10;;;10.90;56.30;;;;;;5201628;28;20049;-70
2021/04/25 07:00:01;;;;;;;11.02;7.18;;;11.00;54.70;;;;;;5204160;28;20405;-68
2021/04/25 07:02:33;;;;;;;11.43;8.15;;;11.10;53.80;;;;;;5202212;28;20060;-67
2021/04/25 07:05:06;;;;;;;10.40;7.90;;;11.30;51.50;;;;;;5204241;28;20041;-68
2021/04/25 07:07:38;;;;;;;11.45;8.27;;;11.30;52.30;;;;;;5202445;28;20112;-67
2021/04/25 07:10:10;;;;;;;11.45;8.07;;;11.40;52.30;;;;;;5203311;28;20073;-70
2021/04/25 07:12:42;;;;;;;11.02;8.15;;;11.40;52.60;;;;;;5235324;28;20045;-68
2021/04/25 07:15:14;;;;;;;10.18;7.60;;;11.40;53.60;;;;;;5183452;28;20053;-68
2021/04/25 07:17:45;;;;;;;11.35;8.20;;;11.50;53.00;;;;;;5233595;28;20064;-68
2021/04/25 07:20:18;;;;;;;13.45;8.63;;;11.70;53.60;;;;;;5202377;28;20762;-67
2021/04/25 07:22:51;;;;;;;16.38;8.38;;;11.80;50.70;;;;;;5201637;28;20044;-67
2021/04/25 07:25:23;;;;;;;13.05;8.75;;;11.90;50.60;;;;;;5200883;28;20114;-67
2021/04/25 07:27:54;;;;;;;10.90;8.63;;;12.10;50.40;;;;;;5234810;28;20079;-67
2021/04/25 07:30:26;;;;;;;12.73;8.52;;;12.30;49.30;;;;;;5199956;28;22558;-67
2021/04/25 07:32:58;;;;;;;12.05;7.72;;;12.50;49.00;;;;;;5200834;28;20045;-67
2021/04/25 07:35:29;;;;;;;12.02;8.77;;;12.60;47.90;;;;;;5199572;28;20076;-67
2021/04/25 07:38:01;;;;;;;12.35;9.10;;;12.70;47.50;;;;;;5233238;28;20121;-67
2021/04/25 07:40:32;;;;;;;13.57;9.27;;;12.80;48.70;;;;;;5201682;28;20045;-67
2021/04/25 07:43:05;;;;;;;11.88;9.20;;;13.00;47.90;;;;;;5199857;28;20049;-67
2021/04/25 07:45:36;;;;;;;11.00;8.20;;;13.20;47.00;;;;;;5196772;28;20228;-67
2021/04/25 07:48:08;;;;;;;11.68;8.60;;;13.30;47.20;;;;;;5231142;28;20786;-67
2021/04/25 07:50:40;;;;;;;11.25;8.40;;;13.30;46.50;;;;;;5200961;28;20099;-67
2021/04/25 07:53:11;;;;;;;12.93;8.68;;;13.50;47.40;;;;;;5198812;28;20119;-67
2021/04/25 07:55:44;;;;;;;12.10;9.05;;;13.70;45.40;;;;;;5199195;28;20045;-67
2021/04/25 07:58:15;;;;;;;11.82;9.00;;;13.80;44.50;;;;;;5198048;28;20056;-67
2021/04/25 08:00:46;;;;;;;13.65;9.10;;;13.90;44.70;;;;;;5202412;28;20106;-67
2021/04/25 08:03:18;;;;;;;12.38;9.43;;;14.00;44.70;;;;;;5199384;28;20037;-67
2021/04/25 08:05:50;;;;;;;11.95;8.98;;;14.10;41.50;;;;;;5198618;28;20041;-67
2021/04/25 08:08:21;;;;;;;13.13;9.65;;;14.20;43.40;;;;;;5198892;28;20071;-68
2021/04/25 08:10:52;;;;;;;13.73;10.68;;;14.30;43.80;;;;;;5199891;28;20037;-68
2021/04/25 08:13:24;;;;;;;11.60;9.23;;;14.30;43.30;;;;;;5200411;28;20045;-68
2021/04/25 08:15:55;;;;;;;12.27;9.00;;;14.40;41.80;;;;;;5197674;28;20045;-67
2021/04/25 08:18:27;;;;;;;13.88;10.63;;;14.50;41.30;;;;;;5186542;28;20087;-67
2021/04/25 08:20:58;;;;;;;11.35;8.82;;;14.50;41.60;;;;;;5171313;28;20045;-68
2021/04/25 08:23:30;;;;;;;12.70;9.48;;;14.60;40.80;;;;;;5200066;28;20662;-68
2021/04/25 08:26:02;;;;;;;12.05;9.38;;;14.60;41.60;;;;;;5201602;28;20068;-70
2021/04/25 08:28:34;;;;;;;11.27;9.30;;;14.70;41.80;;;;;;5214525;28;20654;-67
2021/04/25 08:31:06;;;;;;;13.63;9.35;;;14.50;43.10;;;;;;5198882;28;20049;-68
2021/04/25 08:33:38;;;;;;;13.15;9.40;;;14.60;40.00;;;;;;5202777;28;20120;-68
2021/04/25 08:36:09;;;;;;;13.13;9.30;;;14.80;41.10;;;;;;5201425;28;20041;-69
2021/04/25 08:38:42;;;;;;;12.52;9.90;;;14.90;41.50;;;;;;5235079;28;20803;-67
2021/04/25 08:41:18;;;;;;;13.77;9.80;;;15.00;39.10;;;;;;5234400;28;20103;-68
2021/04/25 08:43:49;;;;;;;12.25;9.45;;;15.00;40.30;;;;;;5206488;28;20037;-68
2021/04/25 08:46:26;;;;;;;11.23;9.30;;;15.00;39.00;;;;;;5206425;28;20100;-68
2021/04/25 08:48:58;;;;;;;12.10;9.25;;;15.00;40.50;;;;;;5204804;28;20391;-68
2021/04/25 08:51:31;;;;;;;12.65;9.38;;;15.10;40.00;;;;;;5204878;28;20049;-68
2021/04/25 08:54:03;;;;;;;12.65;9.90;;;15.10;41.20;;;;;;5209554;28;20043;-68
2021/04/25 08:56:35;;;;;;;14.18;9.77;;;15.20;39.80;;;;;;5203092;28;20499;-68
2021/04/25 08:59:07;;;;;;;13.02;10.07;;;15.20;40.70;;;;;;5202106;28;20049;-68
2021/04/25 09:01:39;;;;;;;11.25;9.65;;;15.30;40.00;;;;;;5205685;28;20036;-68
2021/04/25 09:04:10;;;;;;;12.05;9.00;;;15.30;40.20;;;;;;5210219;28;20419;-69
2021/04/25 09:07:02;;;;;;;13.30;10.43;;;15.30;40.10;;;;;;5206994;28;20045;-68
2021/04/25 09:09:56;;;;;;;12.52;9.77;;;15.40;39.10;;;;;;5234386;28;20426;-68
2021/04/25 09:12:34;;;;;;;13.88;10.35;;;15.40;39.90;;;;;;5204796;28;20049;-67
2021/04/25 09:15:26;;;;;;;12.80;10.40;;;15.40;39.60;;;;;;5203332;28;20087;-68
2021/04/25 09:18:02;;;;;;;13.25;10.73;;;15.50;38.90;;;;;;5216459;28;20128;-67
2021/04/25 09:20:34;;;;;;;16.27;11.00;;;15.70;38.30;;;;;;5218808;28;20071;-67
2021/04/25 09:23:08;;;;;;;13.70;11.63;;;15.80;38.10;;;;;;5202185;28;20329;-68
2021/04/25 09:26:04;;;;;;;14.43;11.35;;;15.80;36.70;;;;;;5204546;28;20142;-67
2021/04/25 09:28:36;;;;;;;12.23;10.82;;;15.90;36.40;;;;;;5206310;28;20057;-68
2021/04/25 09:31:15;;;;;;;12.75;10.93;;;16.00;37.30;;;;;;5211173;28;20037;-68
2021/04/25 09:33:55;;;;;;;14.18;11.80;;;16.00;36.20;;;;;;5198583;28;20049;-68
2021/04/25 09:36:29;;;;;;;13.27;11.00;;;16.00;34.30;;;;;;5204454;28;20538;-68
2021/04/25 09:39:29;;;;;;;14.05;11.15;;;16.00;33.90;;;;;;5202103;28;20045;-68
2021/04/25 09:42:02;;;;;;;14.60;10.85;;;16.10;34.40;;;;;;5190845;28;20475;-68
2021/04/25 09:44:36;;;;;;;16.08;11.95;;;16.10;32.60;;;;;;5204531;28;20068;-68
2021/04/25 09:47:08;;;;;;;18.30;11.82;;;16.10;30.90;;;;;;5201628;28;20049;-65
2021/04/25 09:49:41;;;;;;;15.02;11.75;;;16.10;30.50;;;;;;5205686;28;20498;-65
2021/04/25 09:52:14;;;;;;;14.60;11.75;;;16.20;31.10;;;;;;5199399;28;20187;-65
2021/04/25 09:54:46;;;;;;;13.82;11.60;;;16.20;32.70;;;;;;5199994;28;20134;-65
2021/04/25 09:57:33;;;;;;;13.55;11.90;;;16.30;33.70;;;;;;5204730;28;20069;-65
2021/04/25 10:00:06;;;;;;;15.35;12.65;;;16.30;32.00;;;;;;5205104;28;20474;-66
2021/04/25 10:02:57;;;;;;;13.93;11.68;;;16.40;32.70;;;;;;5205548;28;20049;-65
2021/04/25 10:05:29;;;;;;;15.77;11.48;;;16.60;32.80;;;;;;5201371;28;20131;-65
2021/04/25 10:08:01;;;;;;;15.77;11.98;;;16.60;32.20;;;;;;5203446;28;20053;-65
2021/04/25 10:10:33;;;;;;;14.80;12.13;;;16.70;31.80;;;;;;5199752;28;20574;-65
2021/04/25 10:13:04;;;;;;;15.60;12.52;;;16.70;32.90;;;;;;5198879;28;20076;-65
2021/04/25 10:15:36;;;;;;;16.02;12.30;;;16.80;32.40;;;;;;5204454;28;20499;-65
2021/04/25 10:18:07;;;;;;;14.07;11.68;;;16.80;32.00;;;;;;5201331;28;20111;-65
2021/04/25 10:20:39;;;;;;;13.82;12.23;;;16.90;33.60;;;;;;5201058;28;20112;-66
2021/04/25 10:23:12;;;;;;;13.88;11.75;;;17.00;32.90;;;;;;5200961;28;20051;-65
2021/04/25 10:25:45;;;;;;;15.20;12.60;;;17.10;31.50;;;;;;5201173;28;20041;-67
2021/04/25 10:28:32;;;;;;;13.00;11.48;;;17.20;32.50;;;;;;5203884;28;20464;-65
2021/04/25 10:31:06;;;;;;;13.85;12.02;;;17.30;33.80;;;;;;5190321;28;20041;-65
2021/04/25 10:33:51;;;;;;;13.27;11.48;;;17.40;32.90;;;;;;5204156;28;20071;-66
2021/04/25 10:36:24;;;;;;;14.25;12.38;;;17.40;33.10;;;;;;5203801;28;20056;-67
2021/04/25 10:38:56;;;;;;;15.73;12.48;;;17.40;31.40;;;;;;5205578;28;20045;-65
2021/04/25 10:41:27;;;;;;;13.98;11.32;;;17.50;31.80;;;;;;5200983;28;20045;-65
2021/04/25 10:44:01;;;;;;;17.42;14.10;;;17.50;33.20;;;;;;5201263;28;20045;-66
2021/04/25 10:46:55;;;;;;;14.45;11.90;;;17.50;31.30;;;;;;5206149;28;20071;-67
2021/04/25 10:49:31;;;;;;;14.10;11.48;;;17.70;34.40;;;;;;5200749;28;20064;-65
2021/04/25 10:52:32;;;;;;;15.27;11.98;;;17.80;32.20;;;;;;5201590;28;20057;-66
2021/04/25 10:57:54;;;;;;;13.43;11.68;;;18.00;31.90;;;;;;5185613;28;20048;-66
2021/04/25 11:00:35;;;;;;;14.10;12.30;;;18.00;32.00;;;;;;5201113;28;20132;-66
2021/04/25 11:03:07;;;;;;;16.63;12.82;;;18.10;32.30;;;;;;5206522;28;20041;-66
2021/04/25 11:05:39;;;;;;;14.40;11.95;;;18.10;31.60;;;;;;5199703;28;20123;-66
2021/04/25 11:08:16;;;;;;;14.02;12.32;;;18.20;31.60;;;;;;5215380;28;20041;-65
2021/04/25 11:10:56;;;;;;;15.15;12.15;;;18.30;31.90;;;;;;5203448;28;20069;-65
2021/04/25 11:13:36;;;;;;;17.45;13.18;;;18.30;31.50;;;;;;5202938;28;20111;-65
2021/04/25 11:16:15;;;;;;;18.95;15.43;;;18.40;32.20;;;;;;5214620;28;20089;-65
2021/04/25 11:19:00;;;;;;;15.07;13.25;;;18.50;32.00;;;;;;5207137;28;20052;-66
2021/04/25 11:24:06;;;;;;;13.82;11.68;;;18.80;31.50;;;;;;5202286;28;20041;-67
2021/04/25 11:26:43;;;;;;;14.15;11.65;;;18.90;30.00;;;;;;5214596;28;20136;-65
2021/04/25 11:29:30;;;;;;;12.95;11.65;;;19.00;30.00;;;;;;5202248;28;20181;-66
2021/04/25 11:32:02;;;;;;;14.13;11.90;;;19.00;31.00;;;;;;5200210;28;20135;-66
2021/04/25 11:34:34;;;;;;;17.02;12.77;;;19.10;30.90;;;;;;5233438;28;20053;-66
2021/04/25 11:37:23;;;;;;;14.88;12.48;;;19.00;30.90;;;;;;5198883;28;20075;-66
2021/04/25 11:39:59;;;;;;;13.70;11.48;;;19.00;31.30;;;;;;5200219;28;20041;-66
2021/04/25 11:42:31;;;;;;;15.43;11.80;;;19.20;31.00;;;;;;5200741;28;20960;-65
2021/04/25 11:45:13;;;;;;;13.23;11.82;;;19.40;31.10;;;;;;5200164;28;20057;-65
2021/04/25 11:47:49;;;;;;;13.32;11.93;;;19.50;30.90;;;;;;5200858;28;20053;-65
2021/04/25 11:50:27;;;;;;;14.20;12.50;;;19.70;29.80;;;;;;5199101;28;20052;-65
2021/04/25 11:52:59;;;;;;;13.52;12.13;;;19.70;30.50;;;;;;5198058;28;20114;-64
2021/04/25 11:55:32;;;;;;;13.20;11.90;;;19.90;30.30;;;;;;5203701;28;20465;-65
2021/04/25 11:58:05;;;;;;;14.38;11.43;;;20.00;30.00;;;;;;5205890;28;20045;-66
2021/04/25 12:00:36;;;;;;;12.95;11.65;;;20.20;30.50;;;;;;5202479;28;20045;-65
2021/04/25 12:03:08;;;;;;;14.32;12.82;;;20.20;29.90;;;;;;5202040;28;20123;-65
2021/04/25 12:05:39;;;;;;;13.63;12.10;;;20.10;30.10;;;;;;5197264;28;20099;-65
2021/04/25 12:08:14;;;;;;;13.18;11.52;;;20.30;29.40;;;;;;5202072;28;20094;-65
2021/04/25 12:10:47;;;;;;;12.95;11.43;;;20.30;29.10;;;;;;5200169;28;20045;-65
2021/04/25 12:13:24;;;;;;;13.27;11.60;;;20.40;29.70;;;;;;5199299;28;20053;-66
2021/04/25 12:15:59;;;;;;;13.38;11.80;;;20.50;29.80;;;;;;5200411;28;20045;-65
2021/04/25 12:18:32;;;;;;;13.35;11.77;;;20.60;29.30;;;;;;5200632;28;20099;-65
2021/04/25 12:21:21;;;;;;;13.95;11.68;;;20.60;30.20;;;;;;5219244;28;20050;-65
2021/04/25 12:23:56;;;;;;;13.32;11.43;;;20.80;28.80;;;;;;5237005;28;20049;-65
2021/04/25 12:26:33;;;;;;;15.93;11.35;;;20.90;28.90;;;;;;5200887;28;20145;-65
2021/04/25 12:29:04;;;;;;;12.63;11.07;;;21.00;29.60;;;;;;5204713;28;20506;-65
2021/04/25 12:31:44;;;;;;;13.90;11.95;;;21.20;28.80;;;;;;5204181;28;20129;-65
2021/04/25 12:34:17;;;;;;;13.15;11.65;;;21.20;28.00;;;;;;5201505;28;20045;-65
2021/04/25 12:36:50;;;;;;;13.10;11.02;;;21.10;28.60;;;;;;5200823;28;20049;-65
2021/04/25 12:39:22;;;;;;;13.52;11.52;;;21.30;29.00;;;;;;5202450;28;20044;-65
2021/04/25 12:41:55;;;;;;;12.55;10.25;;;21.30;28.70;;;;;;5202341;28;20049;-66
2021/04/25 12:44:37;;;;;;;13.13;11.73;;;21.30;28.80;;;;;;5201670;28;20045;-66
2021/04/25 12:47:10;;;;;;;13.30;11.27;;;21.40;28.90;;;;;;5202218;28;20115;-65
2021/04/25 12:49:55;;;;;;;12.27;11.05;;;21.60;28.00;;;;;;5201142;28;20550;-67
2021/04/25 12:52:35;;;;;;;12.27;10.98;;;21.60;27.50;;;;;;5202495;28;20091;-66
2021/04/25 12:55:07;;;;;;;14.55;11.98;;;21.40;27.90;;;;;;5202562;28;20057;-65
2021/04/25 12:57:39;;;;;;;12.88;11.45;;;21.40;27.70;;;;;;5202360;28;20915;-66
2021/04/25 13:00:28;;;;;;;12.48;11.23;;;21.50;28.30;;;;;;5201094;28;20354;-65
2021/04/25 13:03:00;;;;;;;13.45;11.90;;;21.60;28.50;;;;;;5203913;28;20171;-65
2021/04/25 13:05:32;;;;;;;14.25;11.38;;;21.40;27.40;;;;;;5202566;28;20533;-65
2021/04/25 13:08:03;;;;;;;12.00;10.70;;;21.30;28.00;;;;;;5202083;28;20029;-66
2021/04/25 13:10:35;;;;;;;14.30;12.07;;;21.40;27.50;;;;;;5200233;28;20053;-65
2021/04/25 13:13:13;;;;;;;12.07;10.85;;;21.50;27.80;;;;;;5200136;28;20432;-65
2021/04/25 13:15:45;;;;;;;13.40;11.65;;;21.40;28.50;;;;;;5202771;28;20518;-65
2021/04/25 13:18:17;;;;;;;14.02;11.85;;;21.40;28.80;;;;;;5197762;28;20103;-65
2021/04/25 13:20:50;;;;;;;13.13;11.48;;;21.30;28.00;;;;;;5198420;28;20049;-65